createdAt,value
2023-08-15T00:00:09.771Z,100249.84
2023-08-15T00:02:40.185Z,100250.84
2023-08-15T00:05:08.366Z,100246.47
2023-08-15T00:07:50.791Z,100243.31
2023-08-15T00:10:18.509Z,100242.25
2023-08-15T00:12:46.175Z,100248.62
2023-08-15T00:15:13.717Z,100246.87
2023-08-15T00:17:41.432Z,100240.75
2023-08-15T00:20:09.291Z,100242.66
2023-08-15T00:22:36.790Z,100236.34
2023-08-15T00:25:04.732Z,100228.59
2023-08-15T00:27:32.582Z,100234.69
2023-08-15T00:30:00.334Z,100233.78
2023-08-15T00:32:36.784Z,100227.47
2023-08-15T00:35:05.199Z,100228.06
2023-08-15T00:37:33.855Z,100229.81
2023-08-15T00:40:02.523Z,100231.56
2023-08-15T00:42:30.614Z,100231.38
2023-08-15T00:44:59.196Z,100221.31
2023-08-15T00:47:26.885Z,100225.78
2023-08-15T00:49:54.646Z,100230.22
2023-08-15T00:52:22.461Z,100235.00
2023-08-15T00:54:51.314Z,100225.25
2023-08-15T00:57:20.129Z,100229.69
2023-08-15T00:59:48.674Z,100228.13
2023-08-15T01:02:16.198Z,100228.97
2023-08-15T01:04:44.319Z,100233.41
2023-08-15T01:07:12.391Z,100228.31
2023-08-15T01:09:43.179Z,100218.62
2023-08-15T01:12:30.318Z,100226.78
2023-08-15T01:15:04.324Z,100224.13
2023-08-15T01:17:38.874Z,100228.78
2023-08-15T01:20:10.726Z,100229.75
2023-08-15T01:22:44.880Z,100226.97
2023-08-15T01:25:12.719Z,100223.25
2023-08-15T01:27:40.178Z,100220.31
2023-08-15T01:30:08.409Z,100230.91
2023-08-15T01:33:03.114Z,100228.62
2023-08-15T01:35:48.254Z,100232.22
2023-08-15T01:38:25.460Z,100227.44
2023-08-15T01:40:54.484Z,100230.25
2023-08-15T01:43:23.231Z,100235.91
2023-08-15T01:45:50.819Z,100227.78
2023-08-15T01:48:18.234Z,100226.34
2023-08-15T01:50:46.145Z,100218.97
2023-08-15T01:53:13.579Z,100215.47
2023-08-15T01:55:41.044Z,100226.41
2023-08-15T01:58:08.980Z,100224.28
2023-08-15T02:00:36.546Z,100219.06
2023-08-15T02:03:04.525Z,100225.16
2023-08-15T02:05:34.230Z,100226.00
2023-08-15T02:08:03.362Z,100222.56
2023-08-15T02:10:31.067Z,100223.69
2023-08-15T02:12:58.481Z,100222.88
2023-08-15T02:15:26.284Z,100225.62
2023-08-15T02:17:54.089Z,100214.84
2023-08-15T02:20:21.935Z,100219.53
2023-08-15T02:22:49.428Z,100218.69
2023-08-15T02:25:16.926Z,100218.84
2023-08-15T02:27:45.531Z,100217.84
2023-08-15T02:30:13.304Z,100224.88
2023-08-15T02:32:40.892Z,100218.66
2023-08-15T02:35:12.796Z,100223.28
2023-08-15T02:37:40.762Z,100221.34
2023-08-15T02:40:10.857Z,100211.81
2023-08-15T02:42:38.453Z,100216.91
2023-08-15T02:45:06.838Z,100223.28
2023-08-15T02:47:34.584Z,100219.69
2023-08-15T02:50:02.051Z,100218.78
2023-08-15T02:52:30.790Z,100214.47
2023-08-15T02:54:58.588Z,100219.63
2023-08-15T02:57:26.090Z,100211.72
2023-08-15T02:59:53.527Z,100223.47
2023-08-15T03:02:21.461Z,100215.72
2023-08-15T03:04:49.372Z,100220.34
2023-08-15T03:07:16.865Z,100220.22
2023-08-15T03:09:44.560Z,100213.19
2023-08-15T03:12:12.089Z,100211.59
2023-08-15T03:14:39.541Z,100215.09
2023-08-15T03:17:08.818Z,100219.66
2023-08-15T03:19:36.656Z,100219.59
2023-08-15T03:22:04.125Z,100215.16
2023-08-15T03:24:32.610Z,100209.87
2023-08-15T03:27:02.208Z,100210.13
2023-08-15T03:29:31.797Z,100214.47
2023-08-15T03:32:00.197Z,100219.78
2023-08-15T03:34:28.139Z,100209.38
2023-08-15T03:36:57.376Z,100212.28
2023-08-15T03:39:24.859Z,100215.78
2023-08-15T03:41:52.300Z,100210.63
2023-08-15T03:44:20.058Z,100215.78
2023-08-15T03:46:48.580Z,100215.78
2023-08-15T03:49:16.628Z,100222.00
2023-08-15T03:51:47.385Z,100218.12
2023-08-15T03:54:15.287Z,100212.81
2023-08-15T03:56:42.898Z,100220.47
2023-08-15T03:59:10.709Z,100218.00
2023-08-15T04:01:38.348Z,100229.34
2023-08-15T04:04:06.949Z,100228.25
2023-08-15T04:06:34.766Z,100223.37
2023-08-15T04:09:02.653Z,100229.53
2023-08-15T04:11:30.465Z,100232.00
2023-08-15T04:13:58.943Z,100228.09
2023-08-15T04:16:26.667Z,100229.84
2023-08-15T04:18:54.496Z,100238.31
2023-08-15T04:21:22.004Z,100238.03
2023-08-15T04:23:49.466Z,100235.00
2023-08-15T04:26:18.566Z,100233.19
2023-08-15T04:28:47.893Z,100234.69
2023-08-15T04:31:15.429Z,100242.62
2023-08-15T04:33:43.164Z,100243.31
2023-08-15T04:36:10.840Z,100238.47
2023-08-15T04:38:39.353Z,100236.25
2023-08-15T04:41:08.006Z,100237.31
2023-08-15T04:43:35.448Z,100235.84
2023-08-15T04:46:02.961Z,100247.31
2023-08-15T04:48:30.748Z,100242.38
2023-08-15T04:50:58.254Z,100241.25
2023-08-15T04:53:25.744Z,100245.69
2023-08-15T04:55:53.635Z,100245.16
2023-08-15T04:58:21.185Z,100249.28
2023-08-15T05:00:49.203Z,100239.97
2023-08-15T05:03:17.031Z,100251.19
2023-08-15T05:05:44.545Z,100259.53
2023-08-15T05:08:13.274Z,100258.63
2023-08-15T05:10:41.123Z,100253.13
2023-08-15T05:13:10.180Z,100248.09
2023-08-15T05:15:37.759Z,100256.47
2023-08-15T05:18:05.874Z,100246.47
2023-08-15T05:20:35.221Z,100255.78
2023-08-15T05:23:05.010Z,100251.78
2023-08-15T05:25:32.816Z,100252.31
2023-08-15T05:28:07.340Z,100258.53
2023-08-15T05:30:35.279Z,100250.66
2023-08-15T05:33:02.908Z,100251.94
2023-08-15T05:35:30.683Z,100256.16
2023-08-15T05:37:58.546Z,100256.31
2023-08-15T05:40:27.315Z,100257.75
2023-08-15T05:42:54.780Z,100264.47
2023-08-15T05:45:22.504Z,100256.56
2023-08-15T05:47:50.189Z,100256.75
2023-08-15T05:50:17.817Z,100258.41
2023-08-15T05:52:45.551Z,100264.03
2023-08-15T05:55:12.974Z,100258.03
2023-08-15T05:57:40.461Z,100259.44
2023-08-15T06:00:09.725Z,100254.66
2023-08-15T06:02:40.238Z,100255.38
2023-08-15T06:05:08.301Z,100254.97
2023-08-15T06:07:35.784Z,100246.50
2023-08-15T06:10:03.281Z,100250.41
2023-08-15T06:12:31.085Z,100253.09
2023-08-15T06:14:58.530Z,100253.47
2023-08-15T06:17:26.051Z,100244.59
2023-08-15T06:19:54.669Z,100244.91
2023-08-15T06:22:22.198Z,100244.13
2023-08-15T06:24:49.882Z,100237.78
2023-08-15T06:27:17.622Z,100247.16
2023-08-15T06:29:45.064Z,100245.38
2023-08-15T06:32:26.361Z,100247.16
2023-08-15T06:34:54.174Z,100247.88
2023-08-15T06:37:21.884Z,100251.88
2023-08-15T06:39:49.546Z,100247.69
2023-08-15T06:42:17.533Z,100249.75
2023-08-15T06:44:44.956Z,100241.00
2023-08-15T06:47:12.535Z,100250.00
2023-08-15T06:49:40.278Z,100246.16
2023-08-15T06:52:10.665Z,100247.13
2023-08-15T06:54:38.081Z,100245.31
2023-08-15T06:57:08.475Z,100244.13
2023-08-15T06:59:36.696Z,100244.66
2023-08-15T07:02:04.636Z,100247.34
2023-08-15T07:04:34.120Z,100241.84
2023-08-15T07:07:01.577Z,100245.16
2023-08-15T07:09:30.209Z,100238.72
2023-08-15T07:11:57.891Z,100241.38
2023-08-15T07:14:25.325Z,100230.13
2023-08-15T07:16:52.925Z,100227.72
2023-08-15T07:19:20.726Z,100227.97
2023-08-15T07:21:48.427Z,100230.50
2023-08-15T07:24:18.367Z,100233.28
2023-08-15T07:26:46.702Z,100233.06
2023-08-15T07:29:14.134Z,100224.31
2023-08-15T07:31:42.261Z,100230.31
2023-08-15T07:34:10.067Z,100231.41
2023-08-15T07:36:37.532Z,100232.94
2023-08-15T07:39:05.159Z,100234.97
2023-08-15T07:41:33.350Z,100233.69
2023-08-15T07:44:00.869Z,100232.03
2023-08-15T07:46:29.007Z,100231.59
2023-08-15T07:48:58.345Z,100223.78
2023-08-15T07:51:25.879Z,100226.56
2023-08-15T07:53:53.288Z,100234.00
2023-08-15T07:56:21.030Z,100234.75
2023-08-15T07:58:48.493Z,100234.88
2023-08-15T08:01:15.922Z,100228.78
2023-08-15T08:03:43.929Z,100236.97
2023-08-15T08:06:31.719Z,100224.88
2023-08-15T08:08:59.040Z,100227.91
2023-08-15T08:11:26.436Z,100229.06
2023-08-15T08:13:53.966Z,100235.03
2023-08-15T08:16:22.723Z,100234.66
2023-08-15T08:18:50.269Z,100223.09
2023-08-15T08:21:17.694Z,100227.63
2023-08-15T08:23:45.502Z,100221.38
2023-08-15T08:26:13.199Z,100219.31
2023-08-15T08:28:41.077Z,100224.81
2023-08-15T08:31:08.983Z,100224.69
2023-08-15T08:33:36.461Z,100226.63
2023-08-15T08:36:04.268Z,100218.56
2023-08-15T08:38:31.990Z,100222.78
2023-08-15T08:40:59.455Z,100224.03
2023-08-15T08:43:27.573Z,100211.44
2023-08-15T08:45:59.350Z,100220.25
2023-08-15T08:48:26.660Z,100221.59
2023-08-15T08:50:59.430Z,100206.63
2023-08-15T08:53:27.517Z,100218.44
2023-08-15T08:55:56.182Z,100213.87
2023-08-15T08:58:26.338Z,100217.25
2023-08-15T09:00:54.915Z,100216.63
2023-08-15T09:03:22.848Z,100213.37
2023-08-15T09:05:50.784Z,100212.81
2023-08-15T09:08:18.524Z,100198.84
2023-08-15T09:10:46.621Z,100206.16
2023-08-15T09:13:22.597Z,100196.47
2023-08-15T09:15:51.413Z,100201.53
2023-08-15T09:18:23.396Z,100205.44
2023-08-15T09:20:51.163Z,100199.72
2023-08-15T09:23:18.692Z,100197.72
2023-08-15T09:25:48.605Z,100203.66
2023-08-15T09:28:16.630Z,100202.66
2023-08-15T09:30:52.124Z,100196.22
2023-08-15T09:33:20.535Z,100198.12
2023-08-15T09:35:57.938Z,100189.53
2023-08-15T09:38:27.921Z,100190.91
2023-08-15T09:40:56.972Z,100197.84
2023-08-15T09:43:24.466Z,100193.91
2023-08-15T09:45:52.417Z,100198.38
2023-08-15T09:48:20.614Z,100196.41
2023-08-15T09:50:50.992Z,100193.22
2023-08-15T09:53:21.697Z,100196.78
2023-08-15T09:55:49.283Z,100197.72
2023-08-15T09:58:17.915Z,100194.56
2023-08-15T10:00:50.986Z,100197.31
2023-08-15T10:03:39.279Z,100190.06
2023-08-15T10:06:10.721Z,100194.09
2023-08-15T10:08:40.940Z,100191.94
2023-08-15T10:11:12.023Z,100195.06
2023-08-15T10:13:40.566Z,100194.94
2023-08-15T10:16:11.495Z,100195.38
2023-08-15T10:18:39.054Z,100193.81
2023-08-15T10:21:10.057Z,100194.94
2023-08-15T10:23:38.395Z,100210.06
2023-08-15T10:26:06.665Z,100204.66
2023-08-15T10:28:35.152Z,100197.53
2023-08-15T10:31:02.796Z,100196.13
2023-08-15T10:33:32.818Z,100198.72
2023-08-15T10:36:00.622Z,100191.91
2023-08-15T10:38:31.738Z,100191.78
2023-08-15T10:41:04.454Z,100184.81
2023-08-15T10:43:36.409Z,100180.81
2023-08-15T10:46:06.036Z,100171.75
2023-08-15T10:49:01.651Z,100174.12
2023-08-15T10:51:34.029Z,100168.88
2023-08-15T10:54:03.974Z,100164.59
2023-08-15T10:56:33.296Z,100172.28
2023-08-15T10:59:06.370Z,100164.16
2023-08-15T11:01:35.866Z,100167.44
2023-08-15T11:04:03.978Z,100171.56
2023-08-15T11:06:31.888Z,100167.47
2023-08-15T11:09:00.120Z,100167.28
2023-08-15T11:11:27.633Z,100165.28
2023-08-15T11:13:56.778Z,100171.25
2023-08-15T11:16:24.847Z,100169.44
2023-08-15T11:18:56.623Z,100163.88
2023-08-15T11:21:29.215Z,100171.38
2023-08-15T11:24:01.389Z,100160.56
2023-08-15T11:26:29.351Z,100162.84
2023-08-15T11:28:56.906Z,100169.69
2023-08-15T11:31:24.688Z,100157.69
2023-08-15T11:33:55.197Z,100159.84
2023-08-15T11:36:22.905Z,100151.72
2023-08-15T11:38:50.677Z,100150.44
2023-08-15T11:41:18.212Z,100146.88
2023-08-15T11:43:46.070Z,100148.56
2023-08-15T11:46:13.894Z,100158.69
2023-08-15T11:48:45.271Z,100160.44
2023-08-15T11:51:18.976Z,100160.03
2023-08-15T11:53:54.256Z,100158.28
2023-08-15T11:56:22.153Z,100156.88
2023-08-15T11:58:49.932Z,100155.75
2023-08-15T12:01:17.477Z,100146.63
2023-08-15T12:03:45.391Z,100150.62
2023-08-15T12:06:15.629Z,100144.09
2023-08-15T12:08:46.277Z,100139.75
2023-08-15T12:11:18.755Z,100132.44
2023-08-15T12:13:46.621Z,100129.59
2023-08-15T12:16:14.443Z,100129.59
2023-08-15T12:18:41.933Z,100119.59
2023-08-15T12:21:13.447Z,100124.19
2023-08-15T12:23:41.871Z,100119.31
2023-08-15T12:26:09.342Z,100118.22
2023-08-15T12:28:37.139Z,100110.12
2023-08-15T12:31:05.161Z,100106.72
2023-08-15T12:33:43.611Z,100117.66
2023-08-15T12:36:15.824Z,100111.16
2023-08-15T12:38:43.713Z,100122.22
2023-08-15T12:41:14.391Z,100121.66
2023-08-15T12:43:42.496Z,100111.72
2023-08-15T12:46:09.990Z,100117.28
2023-08-15T12:48:37.420Z,100113.47
2023-08-15T12:51:05.142Z,100118.22
2023-08-15T12:53:32.596Z,100107.59
2023-08-15T12:56:00.047Z,100111.72
2023-08-15T12:58:27.797Z,100108.47
2023-08-15T13:00:55.362Z,100106.22
2023-08-15T13:03:22.826Z,100104.66
2023-08-15T13:05:50.760Z,100105.47
2023-08-15T13:08:20.369Z,100092.38
2023-08-15T13:10:48.842Z,100089.81
2023-08-15T13:13:16.642Z,100094.66
2023-08-15T13:15:44.089Z,100097.25
2023-08-15T13:18:11.633Z,100091.28
2023-08-15T13:20:39.944Z,100083.44
2023-08-15T13:23:07.373Z,100085.31
2023-08-15T13:25:34.996Z,100081.56
2023-08-15T13:28:02.684Z,100073.88
2023-08-15T13:30:30.217Z,100069.19
2023-08-15T13:32:58.857Z,100071.88
2023-08-15T13:35:26.669Z,100064.09
2023-08-15T13:37:54.115Z,100059.41
2023-08-15T13:40:21.558Z,100056.81
2023-08-15T13:42:49.479Z,100066.44
2023-08-15T13:45:18.448Z,100065.59
2023-08-15T13:47:46.169Z,100068.13
2023-08-15T13:50:13.914Z,100061.19
2023-08-15T13:52:41.334Z,100060.78
2023-08-15T13:55:09.251Z,100058.25
2023-08-15T13:57:36.967Z,100067.94
2023-08-15T14:00:04.849Z,100059.25
2023-08-15T14:02:36.421Z,100065.97
2023-08-15T14:05:05.651Z,100059.09
2023-08-15T14:07:33.923Z,100058.28
2023-08-15T14:10:01.534Z,100062.38
2023-08-15T14:12:30.261Z,100062.50
2023-08-15T14:14:57.946Z,100057.47
2023-08-15T14:17:25.594Z,100052.25
2023-08-15T14:19:53.831Z,100055.06
2023-08-15T14:22:21.572Z,100052.91
2023-08-15T14:24:50.124Z,100053.94
2023-08-15T14:27:20.687Z,100044.59
2023-08-15T14:29:49.814Z,100051.00
2023-08-15T14:32:18.138Z,100053.87
2023-08-15T14:34:47.509Z,100053.53
2023-08-15T14:37:14.998Z,100045.88
2023-08-15T14:39:43.421Z,100043.87
2023-08-15T14:42:11.255Z,100038.06
2023-08-15T14:44:38.694Z,100044.75
2023-08-15T14:47:06.132Z,100044.59
2023-08-15T14:49:33.847Z,100042.28
2023-08-15T14:52:02.589Z,100041.13
2023-08-15T14:54:30.190Z,100043.00
2023-08-15T14:56:58.094Z,100045.72
2023-08-15T14:59:25.519Z,100040.47
2023-08-15T15:02:02.356Z,100032.22
2023-08-15T15:04:32.241Z,100022.84
2023-08-15T15:06:59.659Z,100016.09
2023-08-15T15:09:27.127Z,100024.06
2023-08-15T15:11:55.416Z,100028.19
2023-08-15T15:14:23.015Z,100030.28
2023-08-15T15:16:51.510Z,100028.19
2023-08-15T15:19:19.403Z,100023.94
2023-08-15T15:21:47.236Z,100022.53
2023-08-15T15:24:14.830Z,100013.16
2023-08-15T15:26:42.922Z,100012.31
2023-08-15T15:29:10.363Z,100022.81
2023-08-15T15:31:37.928Z,100024.84
2023-08-15T15:34:06.004Z,100017.19
2023-08-15T15:36:33.787Z,100016.16
2023-08-15T15:39:01.451Z,100009.75
2023-08-15T15:41:29.995Z,100011.62
2023-08-15T15:43:57.868Z,100014.16
2023-08-15T15:46:26.291Z,100003.78
2023-08-15T15:48:55.101Z,100003.25
2023-08-15T15:51:26.367Z,100005.34
2023-08-15T15:53:53.967Z,99993.00
2023-08-15T15:56:21.698Z,99999.97
2023-08-15T15:58:49.296Z,99996.13
2023-08-15T16:01:20.573Z,99998.28
2023-08-15T16:03:58.783Z,100000.41
2023-08-15T16:06:28.049Z,99995.59
2023-08-15T16:08:59.586Z,100008.38
2023-08-15T16:11:27.660Z,100004.38
2023-08-15T16:13:55.906Z,100004.81
2023-08-15T16:16:26.707Z,100007.22
2023-08-15T16:18:54.981Z,100002.97
2023-08-15T16:21:31.358Z,100000.13
2023-08-15T16:24:07.495Z,100011.56
2023-08-15T16:26:38.310Z,100016.81
2023-08-15T16:29:06.075Z,100008.31
2023-08-15T16:31:33.678Z,100009.16
2023-08-15T16:34:01.249Z,100009.69
2023-08-15T16:36:28.979Z,100007.59
2023-08-15T16:38:56.455Z,100009.53
2023-08-15T16:41:23.859Z,100015.94
2023-08-15T16:43:51.937Z,100005.16
2023-08-15T16:46:19.553Z,100015.75
2023-08-15T16:48:47.864Z,100013.34
2023-08-15T16:51:15.808Z,100012.50
2023-08-15T16:53:43.381Z,100005.91
2023-08-15T16:56:10.951Z,100008.28
2023-08-15T16:58:38.869Z,100013.25
2023-08-15T17:01:06.420Z,100009.97
2023-08-15T17:03:34.134Z,100015.75
2023-08-15T17:06:01.927Z,100011.41
2023-08-15T17:08:29.468Z,100015.47
2023-08-15T17:10:57.000Z,100009.19
2023-08-15T17:13:24.993Z,100011.69
2023-08-15T17:15:52.431Z,100024.34
2023-08-15T17:18:19.862Z,100023.47
2023-08-15T17:20:47.695Z,100025.00
2023-08-15T17:23:15.119Z,100025.41
2023-08-15T17:25:42.735Z,100022.38
2023-08-15T17:28:10.478Z,100010.75
2023-08-15T17:30:37.906Z,100018.53
2023-08-15T17:33:05.700Z,100022.31
2023-08-15T17:35:33.478Z,100024.88
2023-08-15T17:38:00.946Z,100024.44
2023-08-15T17:40:28.375Z,100028.88
2023-08-15T17:42:56.041Z,100039.22
2023-08-15T17:45:23.504Z,100034.22
2023-08-15T17:47:51.127Z,100041.22
2023-08-15T17:50:18.991Z,100037.31
2023-08-15T17:52:47.401Z,100034.94
2023-08-15T17:55:15.002Z,100018.12
2023-08-15T17:57:42.793Z,99998.72
2023-08-15T18:00:10.874Z,100002.87
2023-08-15T18:02:38.398Z,100016.03
2023-08-15T18:05:06.952Z,100024.22
2023-08-15T18:07:34.519Z,100033.47
2023-08-15T18:10:02.168Z,100044.03
2023-08-15T18:12:30.751Z,100051.56
2023-08-15T18:14:58.471Z,100048.66
2023-08-15T18:17:25.937Z,100052.69
2023-08-15T18:19:54.355Z,100053.16
2023-08-15T18:22:21.974Z,100053.34
2023-08-15T18:24:49.696Z,100069.41
2023-08-15T18:27:19.889Z,100064.72
2023-08-15T18:29:48.355Z,100072.66
2023-08-15T18:32:15.847Z,100072.66
2023-08-15T18:34:43.588Z,100071.94
2023-08-15T18:37:11.072Z,100067.66
2023-08-15T18:39:38.581Z,100069.53
2023-08-15T18:42:06.279Z,100077.16
2023-08-15T18:44:33.787Z,100080.28
2023-08-15T18:47:03.428Z,100083.19
2023-08-15T18:49:31.414Z,100080.91
2023-08-15T18:52:01.271Z,100075.16
2023-08-15T18:54:28.957Z,100067.22
2023-08-15T18:56:56.690Z,100068.53
2023-08-15T18:59:24.420Z,100069.44
2023-08-15T19:01:52.110Z,100070.19
2023-08-15T19:04:19.886Z,100075.22
2023-08-15T19:06:47.831Z,100063.47
2023-08-15T19:09:15.299Z,100077.37
2023-08-15T19:11:43.077Z,100082.16
2023-08-15T19:14:11.329Z,100075.19
2023-08-15T19:16:38.786Z,100076.50
2023-08-15T19:19:06.579Z,100075.44
2023-08-15T19:21:34.061Z,100070.81
2023-08-15T19:24:01.491Z,100074.50
2023-08-15T19:26:29.228Z,100081.16
2023-08-15T19:28:56.687Z,100089.72
2023-08-15T19:31:24.308Z,100090.25
2023-08-15T19:33:52.191Z,100092.59
2023-08-15T19:36:19.661Z,100094.84
2023-08-15T19:38:47.044Z,100093.50
2023-08-15T19:41:14.734Z,100092.41
2023-08-15T19:43:42.167Z,100094.19
2023-08-15T19:46:09.681Z,100095.44
2023-08-15T19:48:37.454Z,100103.50
2023-08-15T19:51:05.046Z,100107.31
2023-08-15T19:53:32.516Z,100106.62
2023-08-15T19:56:00.268Z,100104.69
2023-08-15T19:58:27.757Z,100106.69
2023-08-15T20:00:55.282Z,100107.88
2023-08-15T20:03:23.161Z,100116.09
2023-08-15T20:05:50.644Z,100124.16
2023-08-15T20:08:18.182Z,100128.75
2023-08-15T20:10:51.526Z,100137.06
2023-08-15T20:13:22.008Z,100144.22
2023-08-15T20:15:51.161Z,100148.66
2023-08-15T20:18:18.646Z,100148.91
2023-08-15T20:20:46.728Z,100155.78
2023-08-15T20:23:16.533Z,100157.03
2023-08-15T20:25:44.673Z,100164.28
2023-08-15T20:28:14.768Z,100166.06
2023-08-15T20:30:42.729Z,100166.72
2023-08-15T20:33:10.269Z,100157.38
2023-08-15T20:35:37.745Z,100159.88
2023-08-15T20:38:05.593Z,100162.63
2023-08-15T20:40:33.305Z,100153.66
2023-08-15T20:43:00.730Z,100162.06
2023-08-15T20:45:28.492Z,100146.28
2023-08-15T20:47:56.043Z,100156.09
2023-08-15T20:50:23.850Z,100151.69
2023-08-15T20:52:54.648Z,100151.91
2023-08-15T20:55:22.319Z,100150.47
2023-08-15T20:57:49.805Z,100152.25
2023-08-15T21:00:17.548Z,100155.13
2023-08-15T21:02:45.150Z,100154.44
2023-08-15T21:05:13.843Z,100153.84
2023-08-15T21:07:41.595Z,100156.53
2023-08-15T21:10:09.497Z,100144.50
2023-08-15T21:12:36.938Z,100148.91
2023-08-15T21:15:05.108Z,100142.13
2023-08-15T21:17:32.983Z,100147.12
2023-08-15T21:20:00.479Z,100152.31
2023-08-15T21:22:29.862Z,100147.03
2023-08-15T21:24:57.497Z,100152.09
2023-08-15T21:27:25.103Z,100150.50
2023-08-15T21:29:53.026Z,100144.88
2023-08-15T21:32:20.540Z,100143.53
2023-08-15T21:34:47.938Z,100140.06
2023-08-15T21:37:15.983Z,100138.75
2023-08-15T21:39:43.555Z,100148.38
2023-08-15T21:42:11.005Z,100143.25
2023-08-15T21:44:38.736Z,100140.88
2023-08-15T21:47:06.204Z,100147.12
2023-08-15T21:49:33.690Z,100146.38
2023-08-15T21:52:03.177Z,100150.19
2023-08-15T21:54:30.611Z,100145.59
2023-08-15T21:57:04.356Z,100158.84
2023-08-15T21:59:32.765Z,100165.09
2023-08-15T22:02:00.606Z,100154.28
2023-08-15T22:04:28.389Z,100157.31
2023-08-15T22:06:55.820Z,100159.37
2023-08-15T22:09:23.296Z,100152.84
2023-08-15T22:11:51.013Z,100156.34
2023-08-15T22:14:19.806Z,100152.84
2023-08-15T22:16:47.375Z,100154.53
2023-08-15T22:19:16.285Z,100162.91
2023-08-15T22:21:43.861Z,100155.22
2023-08-15T22:24:11.396Z,100156.72
2023-08-15T22:26:39.225Z,100165.22
2023-08-15T22:29:06.740Z,100155.22
2023-08-15T22:31:34.280Z,100162.28
2023-08-15T22:34:02.191Z,100158.50
2023-08-15T22:36:29.790Z,100158.00
2023-08-15T22:38:57.298Z,100155.09
2023-08-15T22:41:25.020Z,100161.97
2023-08-15T22:43:52.489Z,100157.88
2023-08-15T22:46:20.005Z,100151.78
2023-08-15T22:48:47.818Z,100141.81
2023-08-15T22:51:15.272Z,100146.28
2023-08-15T22:53:45.784Z,100142.00
2023-08-15T22:56:13.488Z,100135.56
2023-08-15T22:58:41.373Z,100137.69
2023-08-15T23:01:08.916Z,100135.78
2023-08-15T23:03:36.695Z,100135.97
2023-08-15T23:06:05.895Z,100137.81
2023-08-15T23:08:34.072Z,100129.28
2023-08-15T23:11:01.763Z,100129.47
2023-08-15T23:13:29.213Z,100121.00
2023-08-15T23:15:56.757Z,100133.50
2023-08-15T23:18:24.548Z,100132.72
2023-08-15T23:20:52.370Z,100123.13
2023-08-15T23:23:19.898Z,100124.31
2023-08-15T23:25:47.620Z,100119.47
2023-08-15T23:28:15.056Z,100123.34
2023-08-15T23:30:42.482Z,100123.62
2023-08-15T23:33:10.302Z,100117.47
2023-08-15T23:35:37.860Z,100126.75
2023-08-15T23:38:05.271Z,100123.72
2023-08-15T23:40:32.978Z,100123.38
2023-08-15T23:43:00.458Z,100117.12
2023-08-15T23:45:30.068Z,100127.78
2023-08-15T23:47:57.818Z,100118.31
2023-08-15T23:50:25.249Z,100115.06
2023-08-15T23:52:52.955Z,100116.97
2023-08-15T23:55:20.777Z,100118.00
2023-08-15T23:57:48.379Z,100128.81
